Time;durP1;ratioP1;P1;durP2;ratioP2;P2;SDS_P1;SDS_P2;PMS_P1;PMS_P2;Temp;Humidity;BMP_temperature;BMP_pressure;BME280_temperature;BME280_humidity;BME280_pressure;Samples;Min_cycle;Max_cycle;Signal;HPM_P1;HPM_P2
2023/04/29 00:01:19;;;;;;;;;;;;;;;12.20;70.90;100527.59;4105598;28;20017;-66
2023/04/29 00:03:21;;;;;;;;;;;;;;;12.19;71.20;100525.09;4105084;28;20444;-66
2023/04/29 00:05:25;;;;;;;;;;;;;;;12.20;70.97;100533.00;4105578;28;20411;-65
2023/04/29 00:07:27;;;;;;;;;;;;;;;12.19;71.23;100525.09;4105496;28;20502;-65
2023/04/29 00:09:29;;;;;;;;;;;;;;;12.19;71.43;100523.19;4105722;28;20020;-65
2023/04/29 00:11:31;;;;;;;;;;;;;;;12.18;71.34;100508.00;4085533;29;20034;-65
2023/04/29 00:13:33;;;;;;;;;;;;;;;12.18;71.22;100510.72;4105390;28;20018;-65
2023/04/29 00:15:36;;;;;;;;;;;;;;;12.18;71.29;100510.72;4105083;28;20469;-65
2023/04/29 00:17:40;;;;;;;;;;;;;;;12.20;70.78;100502.41;4105044;28;20037;-65
2023/04/29 00:19:43;;;;;;;;;;;;;;;12.20;70.74;100500.53;4088446;29;20496;-65
2023/04/29 00:21:46;;;;;;;;;;;;;;;12.20;70.87;100497.00;4104655;28;20025;-65
2023/04/29 00:23:48;;;;;;;;;;;;;;;12.19;71.26;100506.97;4105020;28;20726;-65
2023/04/29 00:25:52;;;;;;;;;;;;;;;12.19;71.58;100506.13;4104941;28;20009;-65
2023/04/29 00:27:58;;;;;;;;;;;;;;;12.17;71.70;100503.63;4103307;28;20017;-66
2023/04/29 00:30:00;;;;;;;;;;;;;;;12.18;71.58;100490.94;4105299;28;20021;-65
2023/04/29 00:32:03;;;;;;;;;;;;;;;12.18;71.67;100496.34;4105175;28;20062;-65
2023/04/29 00:34:04;;;;;;;;;;;;;;;12.18;71.22;100491.75;4105109;28;20025;-65
2023/04/29 00:36:07;;;;;;;;;;;;;;;12.19;71.33;100489.88;4073649;29;20095;-65
2023/04/29 00:38:10;;;;;;;;;;;;;;;12.20;71.15;100478.03;4105228;28;20025;-65
2023/04/29 00:40:14;;;;;;;;;;;;;;;12.19;72.03;100488.00;4105438;28;20477;-65
2023/04/29 00:42:16;;;;;;;;;;;;;;;12.18;71.89;100491.75;4105071;28;20025;-65
2023/04/29 00:44:18;;;;;;;;;;;;;;;12.17;72.27;100495.50;4104673;28;20018;-65
2023/04/29 00:46:20;;;;;;;;;;;;;;;12.16;71.91;100499.25;4104544;28;20481;-65
2023/04/29 00:48:22;;;;;;;;;;;;;;;12.15;72.08;100499.44;4105420;28;20029;-65
2023/04/29 00:50:24;;;;;;;;;;;;;;;12.15;72.26;100499.44;4072509;29;20026;-65
2023/04/29 00:52:26;;;;;;;;;;;;;;;12.14;72.14;100495.06;4103923;28;20029;-65
2023/04/29 00:54:30;;;;;;;;;;;;;;;12.14;72.54;100500.47;4086745;29;20017;-65
2023/04/29 00:56:32;;;;;;;;;;;;;;;12.14;72.27;100501.28;4104488;28;20449;-65
2023/04/29 00:58:35;;;;;;;;;;;;;;;12.11;72.76;100509.81;4105191;28;20029;-65
2023/04/29 01:00:37;;;;;;;;;;;;;;;12.11;72.76;100503.56;4104722;28;20028;-66
2023/04/29 01:02:39;;;;;;;;;;;;;;;12.08;73.03;100505.63;4087305;29;20010;-65
2023/04/29 01:04:41;;;;;;;;;;;;;;;12.07;72.83;100503.94;4105053;28;20013;-65
2023/04/29 01:06:48;;;;;;;;;;;;;;;12.07;73.19;100505.81;4104024;28;19938;-65
2023/04/29 01:08:52;;;;;;;;;;;;;;;12.07;72.93;100517.47;4087905;29;20013;-65
2023/04/29 01:11:03;;;;;;;;;;;;;;;12.07;73.19;100516.66;4071927;29;20026;-65
2023/04/29 01:13:07;;;;;;;;;;;;;;;12.06;73.25;100506.84;4104260;28;20041;-65
2023/04/29 01:15:12;;;;;;;;;;;;;;;12.06;73.84;100506.84;4071788;29;20015;-65
2023/04/29 01:17:15;;;;;;;;;;;;;;;12.03;74.01;100502.63;4072634;29;20026;-65
2023/04/29 01:19:20;;;;;;;;;;;;;;;12.01;74.18;100503.88;4088141;28;20365;-65
2023/04/29 01:21:22;;;;;;;;;;;;;;;12.02;74.64;100497.41;4104527;28;20052;-65
2023/04/29 01:23:26;;;;;;;;;;;;;;;12.02;74.39;100489.31;4104864;28;20017;-65
2023/04/29 01:25:28;;;;;;;;;;;;;;;12.01;74.66;100491.19;4105276;28;20025;-64
2023/04/29 01:27:53;;;;;;;;;;;;;;;12.01;75.20;100477.66;4062599;29;19934;-65
2023/04/29 01:29:58;;;;;;;;;;;;;;;12.01;75.37;100484.94;4072559;29;20037;-65
2023/04/29 01:32:03;;;;;;;;;;;;;;;12.01;75.74;100496.59;4072608;29;19967;-64
2023/04/29 01:34:08;;;;;;;;;;;;;;;12.00;76.40;100488.66;4103335;28;20014;-65
2023/04/29 01:36:14;;;;;;;;;;;;;;;11.98;76.86;100501.56;4087016;29;20022;-65
2023/04/29 01:38:23;;;;;;;;;;;;;;;11.95;77.61;100488.41;4087604;29;20017;-65
2023/04/29 01:40:30;;;;;;;;;;;;;;;11.92;78.16;100480.66;4104966;28;20017;-65
2023/04/29 01:42:44;;;;;;;;;;;;;;;11.89;78.33;100496.22;4088212;28;20469;-65
2023/04/29 01:44:49;;;;;;;;;;;;;;;11.88;79.00;100491.84;4087889;29;20370;-64
2023/04/29 01:46:54;;;;;;;;;;;;;;;11.84;79.47;100495.97;4071962;29;20025;-65
2023/04/29 01:48:59;;;;;;;;;;;;;;;11.83;79.80;100496.16;4086913;29;20026;-65
2023/04/29 01:51:01;;;;;;;;;;;;;;;11.79;80.09;100500.28;4104304;28;20029;-65
2023/04/29 01:53:03;;;;;;;;;;;;;;;11.78;80.20;100498.59;4104360;28;20013;-63
2023/04/29 01:55:06;;;;;;;;;;;;;;;11.78;80.89;100495.88;4088049;28;20480;-66
2023/04/29 01:57:20;;;;;;;;;;;;;;;11.79;80.78;100486.75;4087505;28;20014;-66
2023/04/29 01:59:31;;;;;;;;;;;;;;;11.77;80.89;100486.09;4086717;29;20387;-66
2023/04/29 02:01:47;;;;;;;;;;;;;;;11.77;81.45;100484.25;4085626;29;20352;-63
2023/04/29 02:03:49;;;;;;;;;;;;;;;11.76;81.41;100484.44;4086968;28;20013;-64
2023/04/29 02:05:52;;;;;;;;;;;;;;;11.77;81.60;100486.09;4072828;29;20032;-64
2023/04/29 02:07:54;;;;;;;;;;;;;;;11.77;81.59;100478.84;4088008;28;20089;-64
2023/04/29 02:09:56;;;;;;;;;;;;;;;11.76;81.82;100474.44;4103324;28;20030;-64
2023/04/29 02:11:58;;;;;;;;;;;;;;;11.78;82.13;100477.78;4086896;28;20033;-65
2023/04/29 02:14:02;;;;;;;;;;;;;;;11.78;82.65;100476.94;4107152;28;20029;-64
2023/04/29 02:16:07;;;;;;;;;;;;;;;11.78;83.15;100482.38;4090411;29;20464;-64
2023/04/29 02:18:09;;;;;;;;;;;;;;;11.76;83.00;100479.84;4075281;29;20033;-64
2023/04/29 02:20:12;;;;;;;;;;;;;;;11.73;83.21;100482.94;4106686;28;20409;-64
2023/04/29 02:22:14;;;;;;;;;;;;;;;11.70;83.60;100489.56;4089368;29;20362;-64
2023/04/29 02:24:17;;;;;;;;;;;;;;;11.69;83.67;100484.34;4089866;29;20027;-64
2023/04/29 02:26:19;;;;;;;;;;;;;;;11.67;83.90;100481.81;4107654;28;20134;-64
2023/04/29 02:28:22;;;;;;;;;;;;;;;11.66;84.15;100482.88;4090502;29;20662;-64
2023/04/29 02:30:25;;;;;;;;;;;;;;;11.65;84.13;100481.19;4106884;28;20012;-64
2023/04/29 02:32:27;;;;;;;;;;;;;;;11.65;84.36;100477.66;4089585;29;20057;-64
2023/04/29 02:34:30;;;;;;;;;;;;;;;11.64;84.31;100479.50;4104381;28;20030;-64
2023/04/29 02:36:34;;;;;;;;;;;;;;;11.65;84.57;100473.06;4106097;28;20025;-64
2023/04/29 02:38:36;;;;;;;;;;;;;;;11.63;84.66;100476.97;4106692;28;20028;-64
2023/04/29 02:40:41;;;;;;;;;;;;;;;11.62;85.02;100480.72;4107079;28;20020;-64
2023/04/29 02:42:43;;;;;;;;;;;;;;;11.61;85.03;100469.06;4058663;29;20389;-64
2023/04/29 02:44:45;;;;;;;;;;;;;;;11.60;85.31;100477.34;4090658;28;20577;-64
2023/04/29 02:46:48;;;;;;;;;;;;;;;11.59;85.09;100468.41;4089912;28;20378;-64
2023/04/29 02:48:50;;;;;;;;;;;;;;;11.57;85.33;100462.38;4104688;28;20029;-65
2023/04/29 02:50:52;;;;;;;;;;;;;;;11.54;85.88;100474.41;4106807;28;19933;-64
2023/04/29 02:52:54;;;;;;;;;;;;;;;11.53;86.52;100471.88;4073630;29;20034;-64
2023/04/29 02:54:56;;;;;;;;;;;;;;;11.52;86.42;100472.94;4106512;28;20562;-64
2023/04/29 02:56:59;;;;;;;;;;;;;;;11.51;86.24;100472.06;4086697;29;20067;-64
2023/04/29 02:59:01;;;;;;;;;;;;;;;11.49;86.44;100467.91;4106502;28;20032;-64
2023/04/29 03:01:03;;;;;;;;;;;;;;;11.49;86.99;100470.59;4089464;29;20078;-64
2023/04/29 03:03:06;;;;;;;;;;;;;;;11.49;87.01;100470.59;4106864;28;20041;-64
2023/04/29 03:05:09;;;;;;;;;;;;;;;11.49;86.66;100474.13;4106538;28;20037;-64
2023/04/29 03:07:11;;;;;;;;;;;;;;;11.48;87.14;100463.50;4106391;28;20030;-64
2023/04/29 03:09:13;;;;;;;;;;;;;;;11.48;87.51;100472.44;4088818;29;20033;-64
2023/04/29 03:11:16;;;;;;;;;;;;;;;11.50;87.34;100472.25;4105771;28;20470;-64
2023/04/29 03:13:18;;;;;;;;;;;;;;;11.48;87.86;100467.03;4105175;28;20021;-64
2023/04/29 03:15:20;;;;;;;;;;;;;;;11.46;87.79;100473.69;4074010;29;20617;-64
2023/04/29 03:17:22;;;;;;;;;;;;;;;11.46;87.96;100463.69;4089429;29;20666;-64
2023/04/29 03:19:25;;;;;;;;;;;;;;;11.46;87.72;100470.97;4106210;28;20020;-64
2023/04/29 03:21:29;;;;;;;;;;;;;;;11.47;87.96;100464.53;4104912;28;21562;-63
2023/04/29 03:23:32;;;;;;;;;;;;;;;11.47;87.87;100470.78;4087963;29;20014;-64
2023/04/29 03:25:35;;;;;;;;;;;;;;;11.47;88.17;100461.81;4089333;28;20057;-64
2023/04/29 03:27:37;;;;;;;;;;;;;;;11.48;88.07;100458.09;4089515;28;20030;-64
2023/04/29 03:29:39;;;;;;;;;;;;;;;11.47;88.23;100459.13;4089341;29;20029;-64
2023/04/29 03:31:42;;;;;;;;;;;;;;;11.47;88.36;100457.28;4105051;28;20385;-64
2023/04/29 03:33:44;;;;;;;;;;;;;;;11.46;88.41;100455.59;4106080;28;20024;-64
2023/04/29 03:35:47;;;;;;;;;;;;;;;11.45;88.61;100456.59;4074615;29;20026;-64
2023/04/29 03:38:00;;;;;;;;;;;;;;;11.44;88.92;100454.94;4089002;28;20021;-64
2023/04/29 03:40:06;;;;;;;;;;;;;;;11.44;88.78;100460.34;4089373;28;20045;-64
2023/04/29 03:42:09;;;;;;;;;;;;;;;11.45;89.11;100459.31;4104104;28;20045;-65
2023/04/29 03:44:11;;;;;;;;;;;;;;;11.45;88.68;100463.88;4087680;29;20021;-64
2023/04/29 03:46:14;;;;;;;;;;;;;;;11.43;88.86;100464.06;4088696;28;20380;-64
2023/04/29 03:48:16;;;;;;;;;;;;;;;11.43;89.12;100461.38;4088836;29;20402;-64
2023/04/29 03:50:18;;;;;;;;;;;;;;;11.43;89.28;100468.66;4105795;28;20041;-64
2023/04/29 03:52:22;;;;;;;;;;;;;;;11.41;89.32;100457.16;4072275;29;20523;-64
2023/04/29 03:54:27;;;;;;;;;;;;;;;11.42;89.93;100454.28;4073372;29;20033;-64
2023/04/29 03:56:29;;;;;;;;;;;;;;;11.44;89.82;100462.19;4073241;29;20022;-64
2023/04/29 03:58:31;;;;;;;;;;;;;;;11.45;90.13;100461.19;4089158;29;20018;-64
2023/04/29 04:00:33;;;;;;;;;;;;;;;11.45;89.86;100455.78;4088701;28;20034;-64
2023/04/29 04:02:39;;;;;;;;;;;;;;;11.46;89.97;100454.75;4072658;29;20029;-64
2023/04/29 04:04:41;;;;;;;;;;;;;;;11.46;89.94;100457.47;4073085;29;20018;-64
2023/04/29 04:06:49;;;;;;;;;;;;;;;11.45;90.13;100456.59;4105138;28;20033;-64
2023/04/29 04:08:53;;;;;;;;;;;;;;;11.44;90.34;100467.59;4073114;29;20026;-64
2023/04/29 04:11:02;;;;;;;;;;;;;;;11.43;90.68;100458.66;4088762;29;20037;-65
2023/04/29 04:13:22;;;;;;;;;;;;;;;11.43;90.69;100464.06;4105427;28;20025;-64
2023/04/29 04:15:25;;;;;;;;;;;;;;;11.43;91.00;100469.47;4105765;28;20029;-64
2023/04/29 04:17:28;;;;;;;;;;;;;;;11.46;91.29;100470.97;4088256;28;19961;-64
2023/04/29 04:19:30;;;;;;;;;;;;;;;11.49;91.25;100476.00;4088581;29;20046;-64
2023/04/29 04:21:32;;;;;;;;;;;;;;;11.47;91.59;100478.91;4087450;29;20017;-64
2023/04/29 04:23:40;;;;;;;;;;;;;;;11.48;91.64;100479.72;4103019;28;20090;-64
2023/04/29 04:25:46;;;;;;;;;;;;;;;11.48;92.06;100477.84;4088603;28;20034;-64
2023/04/29 04:28:08;;;;;;;;;;;;;;;11.47;91.93;100476.19;4105562;28;20025;-64
2023/04/29 04:30:28;;;;;;;;;;;;;;;11.46;92.43;100477.22;4072956;29;20026;-64
2023/04/29 04:32:31;;;;;;;;;;;;;;;11.46;92.43;100474.50;4088255;28;20027;-64
2023/04/29 04:34:33;;;;;;;;;;;;;;;11.47;92.58;100470.78;4103009;28;20581;-64
2023/04/29 04:36:37;;;;;;;;;;;;;;;11.48;92.55;100467.03;4104539;28;20437;-64
2023/04/29 04:38:39;;;;;;;;;;;;;;;11.49;92.84;100471.44;4104841;28;20021;-64
2023/04/29 04:40:47;;;;;;;;;;;;;;;11.51;92.93;100474.78;4087046;29;19991;-64
2023/04/29 04:43:18;;;;;;;;;;;;;;;11.52;93.04;100478.34;4099472;28;20444;-64
2023/04/29 04:45:20;;;;;;;;;;;;;;;11.52;93.05;100481.03;4072418;29;20025;-64
2023/04/29 04:47:26;;;;;;;;;;;;;;;11.53;93.42;100480.00;4088340;28;20025;-63
2023/04/29 04:49:38;;;;;;;;;;;;;;;11.54;93.17;100478.97;4103808;28;20100;-64
2023/04/29 04:51:40;;;;;;;;;;;;;;;11.53;93.39;100474.59;4086693;29;20029;-63
2023/04/29 04:53:43;;;;;;;;;;;;;;;11.55;93.39;100480.63;4085804;28;20026;-63
2023/04/29 04:55:54;;;;;;;;;;;;;;;11.56;93.77;100485.03;4087100;29;19927;-63
2023/04/29 04:57:57;;;;;;;;;;;;;;;11.58;93.57;100484.84;4089989;28;20015;-64
2023/04/29 05:00:01;;;;;;;;;;;;;;;11.59;94.03;100483.81;4102017;28;20017;-65
2023/04/29 05:02:03;;;;;;;;;;;;;;;11.61;94.07;100484.47;4102615;28;20025;-64
2023/04/29 05:04:05;;;;;;;;;;;;;;;11.62;93.96;100484.25;4103290;28;20417;-64
2023/04/29 05:06:07;;;;;;;;;;;;;;;11.62;94.13;100489.69;4104408;28;20021;-64
2023/04/29 05:08:09;;;;;;;;;;;;;;;11.60;94.69;100489.03;4086754;29;20832;-65
2023/04/29 05:10:25;;;;;;;;;;;;;;;11.60;94.90;100491.75;4088325;28;20026;-64
2023/04/29 05:12:31;;;;;;;;;;;;;;;11.59;94.73;100490.06;4088038;29;20045;-64
2023/04/29 05:14:34;;;;;;;;;;;;;;;11.59;94.81;100487.34;4073309;29;20406;-64
2023/04/29 05:16:36;;;;;;;;;;;;;;;11.60;95.43;100483.63;4088378;29;20034;-64
2023/04/29 05:18:38;;;;;;;;;;;;;;;11.60;95.64;100483.63;4088940;29;20033;-64
2023/04/29 05:20:40;;;;;;;;;;;;;;;11.61;95.84;100492.56;4105459;28;20025;-64
2023/04/29 05:22:42;;;;;;;;;;;;;;;11.62;95.90;100488.84;4104770;28;20049;-64
2023/04/29 05:24:47;;;;;;;;;;;;;;;11.63;95.94;100490.50;4087591;29;20022;-64
2023/04/29 05:26:50;;;;;;;;;;;;;;;11.65;96.08;100491.19;4088274;29;20069;-64
2023/04/29 05:28:54;;;;;;;;;;;;;;;11.64;96.38;100487.59;4073026;29;20027;-65
2023/04/29 05:30:56;;;;;;;;;;;;;;;11.66;96.55;100495.53;4088187;28;20536;-64
2023/04/29 05:32:58;;;;;;;;;;;;;;;11.66;96.51;100495.53;4088144;28;20021;-64
2023/04/29 05:35:01;;;;;;;;;;;;;;;11.68;96.85;100501.63;4102341;28;20028;-65
2023/04/29 05:37:04;;;;;;;;;;;;;;;11.69;97.21;100496.00;4105427;28;19937;-65
2023/04/29 05:39:11;;;;;;;;;;;;;;;11.71;96.99;100495.81;4072696;29;19966;-65
2023/04/29 05:41:14;;;;;;;;;;;;;;;11.74;96.96;100490.03;4088097;28;20038;-65
2023/04/29 05:43:26;;;;;;;;;;;;;;;11.77;97.31;100497.78;4088178;28;20516;-65
2023/04/29 05:45:30;;;;;;;;;;;;;;;11.78;97.18;100504.00;4088380;28;20029;-65
2023/04/29 05:47:32;;;;;;;;;;;;;;;11.79;97.22;100503.00;4106835;28;20577;-64
2023/04/29 05:49:35;;;;;;;;;;;;;;;11.80;97.23;100504.66;4091481;29;20021;-64
2023/04/29 05:51:37;;;;;;;;;;;;;;;11.82;97.66;100508.84;4090219;29;20031;-64
2023/04/29 05:53:39;;;;;;;;;;;;;;;11.84;97.39;100508.66;4075449;29;20034;-64
2023/04/29 05:55:43;;;;;;;;;;;;;;;11.83;97.31;100501.56;4075408;29;20021;-64
2023/04/29 05:57:50;;;;;;;;;;;;;;;11.82;97.37;100497.19;4107213;28;19931;-65
2023/04/29 05:59:54;;;;;;;;;;;;;;;11.83;97.65;100506.97;4107294;28;20049;-64
2023/04/29 06:01:57;;;;;;;;;;;;;;;11.84;97.14;100509.50;4075507;29;20465;-65
2023/04/29 06:04:00;;;;;;;;;;;;;;;11.85;97.67;100507.66;4091047;29;20018;-65
2023/04/29 06:06:08;;;;;;;;;;;;;;;11.85;97.36;100500.34;4090742;29;20021;-65
2023/04/29 06:08:34;;;;;;;;;;;;;;;11.87;97.82;100514.53;4090381;29;19926;-64
2023/04/29 06:10:50;;;;;;;;;;;;;;;11.88;97.54;100507.22;4090261;29;20516;-65
2023/04/29 06:12:52;;;;;;;;;;;;;;;11.87;97.96;100519.94;4091335;28;20918;-62
2023/04/29 06:14:55;;;;;;;;;;;;;;;11.87;97.74;100519.09;4106683;28;20024;-64
2023/04/29 06:16:59;;;;;;;;;;;;;;;11.87;98.34;100524.50;4108191;28;20087;-63
2023/04/29 06:19:01;;;;;;;;;;;;;;;11.84;98.18;100517.59;4089684;29;19935;-64
2023/04/29 06:21:04;;;;;;;;;;;;;;;11.83;98.84;100518.66;4073673;29;19927;-63
2023/04/29 06:23:06;;;;;;;;;;;;;;;11.85;98.87;100519.28;4089648;29;20003;-64
2023/04/29 06:25:09;;;;;;;;;;;;;;;11.89;98.64;100523.28;4090765;29;20021;-64
2023/04/29 06:27:22;;;;;;;;;;;;;;;11.91;98.62;100523.09;4091925;28;20009;-63
2023/04/29 06:29:25;;;;;;;;;;;;;;;11.93;98.58;100525.63;4106593;28;19926;-63
2023/04/29 06:31:28;;;;;;;;;;;;;;;11.94;98.80;100524.63;4107665;28;20037;-63
2023/04/29 06:33:39;;;;;;;;;;;;;;;11.93;98.72;100531.03;4090355;29;20010;-63
2023/04/29 06:35:41;;;;;;;;;;;;;;;11.96;98.51;100525.25;4060023;29;20405;-63
2023/04/29 06:38:10;;;;;;;;;;;;;;;11.98;98.56;100525.91;4106202;28;20028;-63
2023/04/29 06:40:30;;;;;;;;;;;;;;;12.00;98.37;100540.91;4107540;28;19930;-63
2023/04/29 06:42:51;;;;;;;;;;;;;;;12.01;98.89;100536.38;4107928;28;20037;-63
2023/04/29 06:45:09;;;;;;;;;;;;;;;12.01;98.86;100533.66;4107686;28;20033;-63
2023/04/29 06:47:15;;;;;;;;;;;;;;;12.02;99.06;100536.19;4074681;29;20022;-63
2023/04/29 06:49:24;;;;;;;;;;;;;;;12.03;98.87;100543.25;4107191;28;20031;-64
2023/04/29 06:51:26;;;;;;;;;;;;;;;12.05;98.97;100548.47;4090674;29;20498;-65
2023/04/29 06:53:29;;;;;;;;;;;;;;;12.05;99.03;100537.63;4105794;28;19938;-64
2023/04/29 06:55:31;;;;;;;;;;;;;;;12.06;98.62;100539.31;4107902;28;20488;-64
2023/04/29 06:57:34;;;;;;;;;;;;;;;12.05;98.66;100543.91;4107355;28;19961;-64
2023/04/29 06:59:35;;;;;;;;;;;;;;;12.06;98.40;100550.16;4074832;29;20018;-64
2023/04/29 07:01:39;;;;;;;;;;;;;;;12.07;98.33;100544.53;4090905;29;20347;-64
2023/04/29 07:03:42;;;;;;;;;;;;;;;12.10;97.49;100545.19;4105658;28;19961;-64
2023/04/29 07:05:48;;;;;;;;;;;;;;;12.11;96.57;100547.69;4105558;28;19930;-64
2023/04/29 07:07:52;;;;;;;;;;;;;;;12.12;96.06;100549.38;4106244;28;20399;-65
2023/04/29 07:09:54;;;;;;;;;;;;;;;12.14;95.69;100549.19;4090584;28;20018;-64
2023/04/29 07:11:56;;;;;;;;;;;;;;;12.15;95.31;100546.28;4088174;29;20402;-64
2023/04/29 07:13:58;;;;;;;;;;;;;;;12.16;95.34;100549.84;4089576;29;20079;-64
2023/04/29 07:16:06;;;;;;;;;;;;;;;12.17;95.08;100557.75;4097903;29;19930;-65
2023/04/29 07:18:08;;;;;;;;;;;;;;;12.19;93.97;100558.41;4106901;28;20013;-64
2023/04/29 07:20:11;;;;;;;;;;;;;;;12.21;93.17;100560.91;4106713;28;20458;-65
2023/04/29 07:22:14;;;;;;;;;;;;;;;12.22;93.62;100558.03;4104674;28;19927;-64
2023/04/29 07:24:16;;;;;;;;;;;;;;;12.23;93.48;100554.28;4107045;28;20012;-64
2023/04/29 07:26:21;;;;;;;;;;;;;;;12.24;93.51;100566.81;4073795;29;20485;-63
2023/04/29 07:28:24;;;;;;;;;;;;;;;12.24;92.41;100560.53;4105707;28;20387;-65
2023/04/29 07:30:32;;;;;;;;;;;;;;;12.25;92.65;100565.75;4089430;29;19930;-66
2023/04/29 07:32:35;;;;;;;;;;;;;;;12.26;91.90;100569.31;4089132;29;20022;-64
2023/04/29 07:34:39;;;;;;;;;;;;;;;12.27;90.58;100568.28;4075615;29;20027;-64
2023/04/29 07:36:42;;;;;;;;;;;;;;;12.28;90.06;100571.84;4090159;29;20361;-64
2023/04/29 07:38:48;;;;;;;;;;;;;;;12.29;89.79;100577.06;4089734;28;19931;-65
2023/04/29 07:40:50;;;;;;;;;;;;;;;12.30;89.66;100578.72;4106728;28;20010;-64
2023/04/29 07:42:55;;;;;;;;;;;;;;;12.31;89.71;100582.28;4088970;29;20368;-64
2023/04/29 07:44:58;;;;;;;;;;;;;;;12.32;88.94;100586.66;4106209;28;19970;-64
2023/04/29 07:47:01;;;;;;;;;;;;;;;12.31;89.04;100593.13;4106084;28;19927;-64
2023/04/29 07:49:05;;;;;;;;;;;;;;;12.31;88.45;100591.25;4088951;29;20682;-64
2023/04/29 07:51:12;;;;;;;;;;;;;;;12.33;87.94;100601.88;4074289;29;20018;-63
2023/04/29 07:53:16;;;;;;;;;;;;;;;12.32;87.81;100602.91;4106213;28;19989;-63
2023/04/29 07:55:21;;;;;;;;;;;;;;;12.33;88.53;100605.41;4106102;28;20061;-65
2023/04/29 07:57:23;;;;;;;;;;;;;;;12.33;87.37;100604.59;4074479;29;20613;-63
2023/04/29 07:59:32;;;;;;;;;;;;;;;12.32;88.26;100603.75;4106905;28;19926;-64
2023/04/29 08:01:34;;;;;;;;;;;;;;;12.32;87.76;100616.44;4106551;28;19930;-64
2023/04/29 08:03:37;;;;;;;;;;;;;;;12.31;88.52;100609.38;4087999;29;19931;-65
2023/04/29 08:05:42;;;;;;;;;;;;;;;12.29;88.37;100617.69;4074144;29;20021;-64
2023/04/29 08:07:44;;;;;;;;;;;;;;;12.28;88.15;100618.69;4106211;28;20026;-62
2023/04/29 08:09:47;;;;;;;;;;;;;;;12.28;89.09;100634.94;4079860;29;20010;-63
2023/04/29 08:11:50;;;;;;;;;;;;;;;12.27;89.78;100633.25;4106649;28;19927;-64
2023/04/29 08:13:53;;;;;;;;;;;;;;;12.28;89.73;100639.53;4106439;28;20017;-65
2023/04/29 08:15:55;;;;;;;;;;;;;;;12.26;88.73;100639.72;4088149;29;20566;-65
2023/04/29 08:17:57;;;;;;;;;;;;;;;12.26;88.85;100645.16;4106734;28;20024;-65
2023/04/29 08:19:59;;;;;;;;;;;;;;;12.26;89.20;100645.97;4105813;28;20005;-65
2023/04/29 08:22:03;;;;;;;;;;;;;;;12.26;89.03;100647.84;4104886;28;20026;-65
2023/04/29 08:24:05;;;;;;;;;;;;;;;12.26;88.51;100642.44;4106196;28;20488;-65
2023/04/29 08:26:09;;;;;;;;;;;;;;;12.26;88.83;100664.09;4105782;28;20017;-65
2023/04/29 08:28:13;;;;;;;;;;;;;;;12.24;88.94;100661.56;4087998;29;20026;-64
2023/04/29 08:30:15;;;;;;;;;;;;;;;12.25;89.03;100674.06;4105336;28;20616;-66
2023/04/29 08:32:17;;;;;;;;;;;;;;;12.24;89.26;100674.25;4105826;28;20612;-65
2023/04/29 08:34:20;;;;;;;;;;;;;;;12.24;88.01;100671.56;4104853;28;20029;-64
2023/04/29 08:36:22;;;;;;;;;;;;;;;12.24;88.20;100677.81;4105076;28;20028;-64
2023/04/29 08:38:24;;;;;;;;;;;;;;;12.24;87.78;100682.38;4105280;28;20018;-64
2023/04/29 08:40:27;;;;;;;;;;;;;;;12.25;87.37;100689.47;4105224;28;20033;-64
2023/04/29 08:42:32;;;;;;;;;;;;;;;12.23;87.04;100697.81;4104587;28;20460;-64
2023/04/29 08:44:36;;;;;;;;;;;;;;;12.24;87.33;100696.78;4105611;28;19926;-64
2023/04/29 08:46:38;;;;;;;;;;;;;;;12.24;87.51;100699.50;4105011;28;20012;-64
2023/04/29 08:48:40;;;;;;;;;;;;;;;12.23;87.07;100702.38;4104181;28;20041;-65
2023/04/29 08:50:43;;;;;;;;;;;;;;;12.21;87.25;100707.13;4105225;28;20029;-64
2023/04/29 08:52:45;;;;;;;;;;;;;;;12.21;87.89;100709.84;4105672;28;20017;-64
2023/04/29 08:54:47;;;;;;;;;;;;;;;12.20;88.53;100711.72;4105474;28;20033;-64
2023/04/29 08:56:49;;;;;;;;;;;;;;;12.19;88.78;100712.72;4106064;28;20028;-64
2023/04/29 08:58:53;;;;;;;;;;;;;;;12.19;88.29;100723.56;4105339;28;20504;-64
2023/04/29 09:00:59;;;;;;;;;;;;;;;12.18;87.98;100726.50;4105694;28;20496;-64
2023/04/29 09:03:03;;;;;;;;;;;;;;;12.16;87.84;100731.22;4105962;28;20020;-64
2023/04/29 09:05:06;;;;;;;;;;;;;;;12.14;88.33;100736.00;4103866;28;19930;-64
2023/04/29 09:07:08;;;;;;;;;;;;;;;12.13;88.63;100734.31;4103338;28;20558;-64
2023/04/29 09:09:13;;;;;;;;;;;;;;;12.13;88.66;100735.16;4104479;28;20517;-69
2023/04/29 09:11:16;;;;;;;;;;;;;;;12.13;88.48;100746.00;4105860;28;20012;-64
2023/04/29 09:13:25;;;;;;;;;;;;;;;12.12;88.47;100747.03;4105377;28;20037;-64
2023/04/29 09:15:27;;;;;;;;;;;;;;;12.13;88.95;100748.72;4105105;28;20021;-64
2023/04/29 09:17:41;;;;;;;;;;;;;;;12.13;88.96;100755.97;4072128;28;20029;-64
2023/04/29 09:19:43;;;;;;;;;;;;;;;12.11;89.25;100758.88;4104659;28;20002;-64
2023/04/29 09:21:45;;;;;;;;;;;;;;;12.12;88.33;100752.44;4106706;28;20034;-64
2023/04/29 09:23:48;;;;;;;;;;;;;;;12.13;88.58;100758.69;4106746;28;20030;-64
2023/04/29 09:25:55;;;;;;;;;;;;;;;12.12;88.64;100762.44;4107384;28;19954;-64
2023/04/29 09:27:57;;;;;;;;;;;;;;;12.11;88.31;100764.28;4090527;29;20010;-64
2023/04/29 09:30:04;;;;;;;;;;;;;;;12.11;88.40;100774.28;4107806;28;20013;-65
2023/04/29 09:32:19;;;;;;;;;;;;;;;12.10;88.37;100778.84;4108362;28;19993;-64
2023/04/29 09:34:31;;;;;;;;;;;;;;;12.11;88.09;100779.69;4107797;28;20021;-64
2023/04/29 09:36:37;;;;;;;;;;;;;;;12.10;88.50;100784.28;4108673;28;20018;-64
2023/04/29 09:38:40;;;;;;;;;;;;;;;12.11;88.17;100776.97;4108031;28;20020;-64
2023/04/29 09:40:42;;;;;;;;;;;;;;;12.11;88.62;100791.34;4106953;28;20021;-64
2023/04/29 09:42:44;;;;;;;;;;;;;;;12.12;88.06;100792.22;4106779;28;20017;-64
2023/04/29 09:44:46;;;;;;;;;;;;;;;12.13;87.76;100796.56;4107601;28;20453;-64
2023/04/29 09:46:54;;;;;;;;;;;;;;;12.12;87.90;100792.22;4108197;28;19934;-64
2023/04/29 09:48:57;;;;;;;;;;;;;;;12.11;87.68;100795.94;4108417;28;20025;-64
2023/04/29 09:51:01;;;;;;;;;;;;;;;12.10;88.07;100800.53;4108354;28;20365;-64
2023/04/29 09:53:03;;;;;;;;;;;;;;;12.10;87.60;100799.66;4107871;28;20013;-64
2023/04/29 09:55:06;;;;;;;;;;;;;;;12.10;87.56;100811.34;4107897;28;20017;-65
2023/04/29 09:57:09;;;;;;;;;;;;;;;12.10;87.40;100819.47;4108633;28;20025;-64
2023/04/29 09:59:11;;;;;;;;;;;;;;;12.10;87.69;100811.34;4108040;28;20024;-64
2023/04/29 10:01:16;;;;;;;;;;;;;;;12.11;87.61;100825.72;4107853;28;20026;-64
2023/04/29 10:03:18;;;;;;;;;;;;;;;12.11;87.17;100823.84;4107835;28;20013;-64
2023/04/29 10:05:20;;;;;;;;;;;;;;;12.11;87.43;100829.25;4107977;28;20026;-64
2023/04/29 10:07:24;;;;;;;;;;;;;;;12.11;87.21;100826.53;4107514;28;20388;-64
2023/04/29 10:09:26;;;;;;;;;;;;;;;12.11;87.43;100834.66;4108284;28;20021;-65
2023/04/29 10:11:29;;;;;;;;;;;;;;;12.11;87.80;100837.38;4090906;29;20420;-64
2023/04/29 10:13:37;;;;;;;;;;;;;;;12.10;87.58;100837.56;4107541;28;20021;-64
2023/04/29 10:15:41;;;;;;;;;;;;;;;12.09;88.17;100836.72;4107804;28;20353;-64
2023/04/29 10:17:44;;;;;;;;;;;;;;;12.07;88.21;100844.19;4106568;28;20853;-64
2023/04/29 10:19:47;;;;;;;;;;;;;;;12.07;88.37;100849.63;4106913;28;20031;-64
2023/04/29 10:21:49;;;;;;;;;;;;;;;12.07;88.68;100849.63;4105935;28;19978;-64
2023/04/29 10:23:53;;;;;;;;;;;;;;;12.07;88.65;100849.63;4107007;28;20389;-64
2023/04/29 10:25:55;;;;;;;;;;;;;;;12.07;88.56;100855.03;4107823;28;20021;-64
2023/04/29 10:27:57;;;;;;;;;;;;;;;12.06;88.38;100858.75;4107701;28;19926;-64
2023/04/29 10:29:59;;;;;;;;;;;;;;;12.05;88.59;100848.94;4107213;28;20008;-63
2023/04/29 10:32:03;;;;;;;;;;;;;;;12.04;88.18;100863.53;4106210;28;20013;-64
2023/04/29 10:34:05;;;;;;;;;;;;;;;12.02;88.26;100858.28;4106159;28;20029;-63
2023/04/29 10:36:08;;;;;;;;;;;;;;;12.02;88.23;100862.84;4107309;28;20018;-64
2023/04/29 10:38:11;;;;;;;;;;;;;;;12.02;88.05;100868.25;4106924;28;20025;-64